createdAt,value
2018-12-27T00:01:22.286Z,8.53
2018-12-27T00:03:50.955Z,10.37
2018-12-27T00:06:19.355Z,9.50
2018-12-27T00:08:47.737Z,10.17
2018-12-27T00:11:16.327Z,10.60
2018-12-27T00:13:44.730Z,10.50
2018-12-27T00:16:13.137Z,10.20
2018-12-27T00:18:41.810Z,11.00
2018-12-27T00:21:10.218Z,9.97
2018-12-27T00:23:38.878Z,10.03
2018-12-27T00:26:07.579Z,11.73
2018-12-27T00:28:36.226Z,11.03
2018-12-27T00:31:05.043Z,12.83
2018-12-27T00:33:33.632Z,12.80
2018-12-27T00:36:02.186Z,10.93
2018-12-27T00:38:31.198Z,12.60
2018-12-27T00:40:59.804Z,12.90
2018-12-27T00:43:28.910Z,11.47
2018-12-27T00:45:57.543Z,12.00
2018-12-27T00:48:26.189Z,11.90
2018-12-27T00:50:54.764Z,11.80
2018-12-27T00:53:23.571Z,12.60
2018-12-27T00:55:52.392Z,11.50
2018-12-27T00:58:20.954Z,12.00
2018-12-27T01:00:49.508Z,10.17
2018-12-27T01:03:18.427Z,11.77
2018-12-27T01:05:47.231Z,11.97
2018-12-27T01:08:15.788Z,12.63
2018-12-27T01:10:44.763Z,9.60
2018-12-27T01:13:13.328Z,11.80
2018-12-27T01:15:41.897Z,15.07
2018-12-27T01:18:10.467Z,10.07
2018-12-27T01:20:39.266Z,11.20
2018-12-27T01:23:08.056Z,11.70
2018-12-27T01:25:36.879Z,10.80
2018-12-27T01:28:05.667Z,11.07
2018-12-27T01:30:34.830Z,11.90
2018-12-27T01:33:03.670Z,12.10
2018-12-27T01:35:32.238Z,10.83
2018-12-27T01:38:00.820Z,11.90
2018-12-27T01:40:29.384Z,10.67
2018-12-27T01:42:57.958Z,11.67
2018-12-27T01:45:26.542Z,10.67
2018-12-27T01:47:55.378Z,10.83
2018-12-27T01:50:23.952Z,11.10
2018-12-27T01:52:54.723Z,11.23
2018-12-27T01:55:23.571Z,12.47
2018-12-27T01:57:52.121Z,10.17
2018-12-27T02:00:20.892Z,11.10
2018-12-27T02:02:49.701Z,11.03
2018-12-27T02:05:18.251Z,12.07
2018-12-27T02:07:47.114Z,11.47
2018-12-27T02:10:15.701Z,11.93
2018-12-27T02:12:44.368Z,11.30
2018-12-27T02:15:13.154Z,13.03
2018-12-27T02:17:42.145Z,11.20
2018-12-27T02:20:10.685Z,10.93
2018-12-27T02:22:39.304Z,12.47
2018-12-27T02:25:07.877Z,12.90
2018-12-27T02:27:36.424Z,10.37
2018-12-27T02:30:05.213Z,9.90
2018-12-27T02:32:33.803Z,11.50
2018-12-27T02:35:02.586Z,12.10
2018-12-27T02:37:31.133Z,11.50
2018-12-27T02:39:59.723Z,10.50
2018-12-27T02:42:28.281Z,11.17
2018-12-27T02:44:56.819Z,12.57
2018-12-27T02:47:25.397Z,10.23
2018-12-27T02:49:53.954Z,11.17
2018-12-27T02:52:22.515Z,13.57
2018-12-27T02:54:51.110Z,10.37
2018-12-27T02:57:19.672Z,10.87
2018-12-27T02:59:48.219Z,10.10
2018-12-27T03:02:17.015Z,12.50
2018-12-27T03:04:45.802Z,12.33
2018-12-27T03:07:14.354Z,11.03
2018-12-27T03:09:42.928Z,10.53
2018-12-27T03:12:11.721Z,10.70
2018-12-27T03:14:40.269Z,12.67
2018-12-27T03:17:08.854Z,10.93
2018-12-27T03:19:37.410Z,9.90
2018-12-27T03:22:05.959Z,11.17
2018-12-27T03:24:34.583Z,10.67
2018-12-27T03:27:03.413Z,10.93
2018-12-27T03:29:31.954Z,11.90
2018-12-27T03:32:00.527Z,10.10
2018-12-27T03:34:29.302Z,10.40
2018-12-27T03:36:58.095Z,13.17
2018-12-27T03:39:26.678Z,10.40
2018-12-27T03:41:55.225Z,10.33
2018-12-27T03:44:24.011Z,10.90
2018-12-27T03:46:52.824Z,11.60
2018-12-27T03:49:21.378Z,10.17
2018-12-27T03:51:49.934Z,13.17
2018-12-27T03:54:18.515Z,11.13
2018-12-27T03:56:47.054Z,11.70
2018-12-27T03:59:15.598Z,12.83
2018-12-27T04:01:44.181Z,11.17
2018-12-27T04:04:12.798Z,11.90
2018-12-27T04:06:41.345Z,11.20
2018-12-27T04:09:10.172Z,12.73
2018-12-27T04:11:38.958Z,11.67
2018-12-27T04:14:07.513Z,10.17
2018-12-27T04:16:36.252Z,11.40
2018-12-27T04:19:04.879Z,11.13
2018-12-27T04:21:33.421Z,9.57
2018-12-27T04:24:02.662Z,12.90
2018-12-27T04:26:31.053Z,11.93
2018-12-27T04:28:59.453Z,11.40
2018-12-27T04:31:28.120Z,10.67
2018-12-27T04:33:57.053Z,11.37
2018-12-27T04:36:25.781Z,12.40
2018-12-27T04:38:54.193Z,10.90
2018-12-27T04:41:22.968Z,10.90
2018-12-27T04:43:51.839Z,12.20
2018-12-27T04:46:20.266Z,12.43
2018-12-27T04:48:48.659Z,10.40
2018-12-27T04:51:17.291Z,11.23
2018-12-27T04:53:45.892Z,10.47
2018-12-27T04:56:14.276Z,10.67
2018-12-27T04:58:42.962Z,13.70
2018-12-27T05:01:11.627Z,10.60
2018-12-27T05:03:40.062Z,10.63
2018-12-27T05:06:08.692Z,10.10
2018-12-27T05:08:37.358Z,11.00
2018-12-27T05:11:05.746Z,10.90
2018-12-27T05:13:34.374Z,10.90
2018-12-27T05:16:02.806Z,11.53
2018-12-27T05:18:31.197Z,12.13
2018-12-27T05:20:59.605Z,10.50
2018-12-27T05:23:28.245Z,10.83
2018-12-27T05:25:56.625Z,10.90
2018-12-27T05:28:25.941Z,10.33
2018-12-27T05:30:54.384Z,11.40
2018-12-27T05:33:22.773Z,11.33
2018-12-27T05:35:51.168Z,10.30
2018-12-27T05:38:19.594Z,8.80
2018-12-27T05:40:47.977Z,9.90
2018-12-27T05:43:16.378Z,10.57
2018-12-27T05:45:44.805Z,11.27
2018-12-27T05:48:13.248Z,9.43
2018-12-27T05:50:41.929Z,12.47
2018-12-27T05:53:10.609Z,9.10
2018-12-27T05:55:39.019Z,11.40
2018-12-27T05:58:07.685Z,11.73
2018-12-27T06:00:36.142Z,11.13
2018-12-27T06:03:04.535Z,11.00
2018-12-27T06:05:33.194Z,11.77
2018-12-27T06:08:01.971Z,12.30
2018-12-27T06:10:31.159Z,12.70
2018-12-27T06:13:00.013Z,14.07
2018-12-27T06:15:28.421Z,11.70
2018-12-27T06:17:56.827Z,14.37
2018-12-27T06:20:25.226Z,11.23
2018-12-27T06:22:53.685Z,11.93
2018-12-27T06:25:22.330Z,12.07
2018-12-27T06:27:50.962Z,12.27
2018-12-27T06:30:19.398Z,13.57
2018-12-27T06:32:47.800Z,12.00
2018-12-27T06:35:17.757Z,14.10
2018-12-27T06:37:46.318Z,15.40
2018-12-27T06:40:14.964Z,11.87
2018-12-27T06:42:43.368Z,15.13
2018-12-27T06:45:11.819Z,14.00
2018-12-27T06:47:40.208Z,11.47
2018-12-27T06:50:08.702Z,14.30
2018-12-27T06:52:37.385Z,13.80
2018-12-27T06:55:05.808Z,12.80
2018-12-27T06:57:34.468Z,13.20
2018-12-27T07:00:03.431Z,12.40
2018-12-27T07:02:32.308Z,15.00
2018-12-27T07:05:00.719Z,13.87
2018-12-27T07:07:29.170Z,15.80
2018-12-27T07:09:57.971Z,15.10
2018-12-27T07:12:26.383Z,13.57
2018-12-27T07:14:55.066Z,13.53
2018-12-27T07:17:23.731Z,13.40
2018-12-27T07:19:52.151Z,15.23
2018-12-27T07:22:20.841Z,13.43
2018-12-27T07:24:49.257Z,14.90
2018-12-27T07:27:17.929Z,14.23
2018-12-27T07:29:46.613Z,15.80
2018-12-27T07:32:15.045Z,14.63
2018-12-27T07:34:43.700Z,13.67
2018-12-27T07:37:12.128Z,12.87
2018-12-27T07:39:40.551Z,13.07
2018-12-27T07:42:09.196Z,14.27
2018-12-27T07:44:38.911Z,14.83
2018-12-27T07:47:07.732Z,12.93
2018-12-27T07:49:36.380Z,13.23
2018-12-27T07:52:05.084Z,15.30
2018-12-27T07:54:33.483Z,14.70
2018-12-27T07:57:02.156Z,15.63
2018-12-27T07:59:30.588Z,15.20
2018-12-27T08:01:59.019Z,16.63
2018-12-27T08:04:27.449Z,15.90
2018-12-27T08:06:56.157Z,15.30
2018-12-27T08:09:24.975Z,14.63
2018-12-27T08:11:54.055Z,16.20
2018-12-27T08:14:22.517Z,15.03
2018-12-27T08:16:50.918Z,14.80
2018-12-27T08:19:19.321Z,15.97
2018-12-27T08:21:47.736Z,15.97
2018-12-27T08:24:16.384Z,17.13
2018-12-27T08:26:45.118Z,15.20
2018-12-27T08:29:13.590Z,14.50
2018-12-27T08:31:42.016Z,13.47
2018-12-27T08:34:10.660Z,14.00
2018-12-27T08:36:39.111Z,13.70
2018-12-27T08:39:07.815Z,14.93
2018-12-27T08:41:36.242Z,13.70
2018-12-27T08:44:04.701Z,16.70
2018-12-27T08:46:33.120Z,12.57
2018-12-27T08:49:01.767Z,15.20
2018-12-27T08:51:30.469Z,13.33
2018-12-27T08:53:59.116Z,15.27
2018-12-27T08:56:27.781Z,14.87
2018-12-27T08:58:56.241Z,15.17
2018-12-27T09:01:24.674Z,12.47
2018-12-27T09:03:53.101Z,14.43
2018-12-27T09:06:21.533Z,13.70
2018-12-27T09:08:50.282Z,12.93
2018-12-27T09:11:18.666Z,13.23
2018-12-27T09:13:47.196Z,14.60
2018-12-27T09:16:15.602Z,12.20
2018-12-27T09:18:44.079Z,13.17
2018-12-27T09:21:12.811Z,12.77
2018-12-27T09:23:41.219Z,12.63
2018-12-27T09:26:09.875Z,11.97
2018-12-27T09:28:38.622Z,13.27
2018-12-27T09:31:07.268Z,13.60
2018-12-27T09:33:36.025Z,14.70
2018-12-27T09:36:04.512Z,15.27
2018-12-27T09:38:33.166Z,14.90
2018-12-27T09:41:01.569Z,14.20
2018-12-27T09:43:30.053Z,13.70
2018-12-27T09:45:58.719Z,14.37
2018-12-27T09:48:27.379Z,16.80
2018-12-27T09:50:55.844Z,13.60
2018-12-27T09:53:24.244Z,13.00
2018-12-27T09:55:52.666Z,15.27
2018-12-27T09:58:21.114Z,12.33
2018-12-27T10:00:49.802Z,15.73
2018-12-27T10:03:18.208Z,11.90
2018-12-27T10:05:46.714Z,17.53
2018-12-27T10:08:15.126Z,13.40
2018-12-27T10:10:43.530Z,14.37
2018-12-27T10:13:12.267Z,13.00
2018-12-27T10:15:40.954Z,12.33
2018-12-27T10:18:09.609Z,13.00
2018-12-27T10:20:38.114Z,14.30
2018-12-27T10:23:06.507Z,13.00
2018-12-27T10:25:35.166Z,12.83
2018-12-27T10:28:03.597Z,12.80
2018-12-27T10:30:32.331Z,13.50
2018-12-27T10:33:00.778Z,13.37
2018-12-27T10:35:29.611Z,12.00
2018-12-27T10:37:58.328Z,12.67
2018-12-27T10:40:26.744Z,11.97
2018-12-27T10:42:55.214Z,14.03
2018-12-27T10:45:23.632Z,11.67
2018-12-27T10:47:52.383Z,13.20
2018-12-27T10:50:20.843Z,12.87
2018-12-27T10:52:49.485Z,13.80
2018-12-27T10:55:18.149Z,13.10
2018-12-27T10:57:46.584Z,14.37
2018-12-27T11:00:15.234Z,11.97
2018-12-27T11:02:43.629Z,12.97
2018-12-27T11:05:12.139Z,12.00
2018-12-27T11:07:40.544Z,13.00
2018-12-27T11:10:11.344Z,12.00
2018-12-27T11:12:39.959Z,11.97
2018-12-27T11:15:08.446Z,10.77
2018-12-27T11:17:37.096Z,12.93
2018-12-27T11:20:06.225Z,14.10
2018-12-27T11:22:34.631Z,9.90
2018-12-27T11:25:03.033Z,11.90
2018-12-27T11:27:32.141Z,11.70
2018-12-27T11:30:00.537Z,11.77
2018-12-27T11:32:28.953Z,11.93
2018-12-27T11:34:57.450Z,11.33
2018-12-27T11:37:26.132Z,10.80
2018-12-27T11:39:54.825Z,11.93
2018-12-27T11:42:23.345Z,10.37
2018-12-27T11:44:51.819Z,12.80
2018-12-27T11:47:20.315Z,15.07
2018-12-27T11:49:48.801Z,14.87
2018-12-27T11:52:17.517Z,13.00
2018-12-27T11:54:46.169Z,13.70
2018-12-27T11:57:14.597Z,14.67
2018-12-27T11:59:43.029Z,14.80
2018-12-27T12:02:11.430Z,14.43
2018-12-27T12:04:39.894Z,15.63
2018-12-27T12:07:08.518Z,14.10
2018-12-27T12:09:36.964Z,15.80
2018-12-27T12:12:06.051Z,14.83
2018-12-27T12:14:34.444Z,14.23
2018-12-27T12:17:03.150Z,16.13
2018-12-27T12:19:32.063Z,16.80
2018-12-27T12:22:00.735Z,16.53
2018-12-27T12:24:29.140Z,15.70
2018-12-27T12:26:57.575Z,17.60
2018-12-27T12:29:25.977Z,15.60
2018-12-27T12:31:54.401Z,14.67
2018-12-27T12:34:22.864Z,17.17
2018-12-27T12:36:51.497Z,16.90
2018-12-27T12:39:20.228Z,16.97
2018-12-27T12:41:48.935Z,16.27
2018-12-27T12:44:17.705Z,16.53
2018-12-27T12:46:46.213Z,17.67
2018-12-27T12:49:14.920Z,14.50
2018-12-27T12:51:43.569Z,18.07
2018-12-27T12:54:12.010Z,16.50
2018-12-27T12:56:40.633Z,17.13
2018-12-27T12:59:09.032Z,17.33
2018-12-27T13:01:37.796Z,16.07
2018-12-27T13:04:06.249Z,15.00
2018-12-27T13:06:34.669Z,17.57
2018-12-27T13:09:04.652Z,19.50
2018-12-27T13:11:33.333Z,17.00
2018-12-27T13:14:01.745Z,15.80
2018-12-27T13:16:30.152Z,15.40
2018-12-27T13:18:58.920Z,15.57
2018-12-27T13:21:27.338Z,14.73
2018-12-27T13:23:55.771Z,15.73
2018-12-27T13:26:24.504Z,16.27
2018-12-27T13:28:52.949Z,14.90
2018-12-27T13:31:21.584Z,16.03
2018-12-27T13:33:50.032Z,17.00
2018-12-27T13:36:25.232Z,15.17
2018-12-27T13:38:49.520Z,15.03
2018-12-27T13:41:18.389Z,16.47
2018-12-27T13:43:46.832Z,14.37
2018-12-27T13:46:15.540Z,15.80
2018-12-27T13:48:44.002Z,16.40
2018-12-27T13:51:12.415Z,17.20
2018-12-27T13:53:40.854Z,16.80
2018-12-27T13:56:10.211Z,17.90
2018-12-27T13:58:38.651Z,16.17
2018-12-27T14:01:07.327Z,16.90
2018-12-27T14:03:36.851Z,15.30
2018-12-27T14:06:05.546Z,13.63
2018-12-27T14:08:34.197Z,14.17
2018-12-27T14:11:02.668Z,15.77
2018-12-27T14:13:31.146Z,15.67
2018-12-27T14:15:59.568Z,13.80
2018-12-27T14:18:28.012Z,14.83
2018-12-27T14:20:56.451Z,14.70
2018-12-27T14:23:25.381Z,15.73
2018-12-27T14:25:54.270Z,15.53
2018-12-27T14:28:22.706Z,18.70
2018-12-27T14:30:51.140Z,18.33
2018-12-27T14:33:19.946Z,17.20
2018-12-27T14:35:48.671Z,17.00
2018-12-27T14:38:17.089Z,18.70
2018-12-27T14:40:45.967Z,19.23
2018-12-27T14:43:14.625Z,17.27
2018-12-27T14:45:43.052Z,17.67
2018-12-27T14:48:12.040Z,17.40
2018-12-27T14:50:40.457Z,18.40
2018-12-27T14:53:09.142Z,17.23
2018-12-27T14:55:37.610Z,17.67
2018-12-27T14:58:06.271Z,21.70
2018-12-27T15:00:34.687Z,20.27
2018-12-27T15:03:03.436Z,20.80
2018-12-27T15:05:32.185Z,17.70
2018-12-27T15:08:00.590Z,18.80
2018-12-27T15:10:29.301Z,20.40
2018-12-27T15:12:58.321Z,20.47
2018-12-27T15:15:26.993Z,18.70
2018-12-27T15:17:55.725Z,19.70
2018-12-27T15:20:24.367Z,18.20
2018-12-27T15:22:52.770Z,17.93
2018-12-27T15:25:21.561Z,19.20
2018-12-27T15:27:49.976Z,20.43
2018-12-27T15:30:18.662Z,20.10
2018-12-27T15:32:47.114Z,18.40
2018-12-27T15:35:15.619Z,19.50
2018-12-27T15:37:44.027Z,18.23
2018-12-27T15:40:12.752Z,18.63
2018-12-27T15:42:41.409Z,17.87
2018-12-27T15:45:09.884Z,20.30
2018-12-27T15:47:38.342Z,19.03
2018-12-27T15:50:08.309Z,19.73
2018-12-27T15:52:36.728Z,18.20
2018-12-27T15:55:05.625Z,18.10
2018-12-27T15:57:34.296Z,18.83
2018-12-27T16:00:03.445Z,21.40
2018-12-27T16:02:31.883Z,19.80
2018-12-27T16:05:00.283Z,19.90
2018-12-27T16:07:28.749Z,18.03
2018-12-27T16:09:57.477Z,22.40
2018-12-27T16:12:25.882Z,18.13
2018-12-27T16:14:54.279Z,20.10
2018-12-27T16:17:22.980Z,20.43
2018-12-27T16:19:51.404Z,21.20
2018-12-27T16:22:19.814Z,17.10
2018-12-27T16:24:48.264Z,22.30
2018-12-27T16:27:16.794Z,20.57
2018-12-27T16:29:45.467Z,19.10
2018-12-27T16:32:14.149Z,21.10
2018-12-27T16:34:42.566Z,19.30
2018-12-27T16:37:11.558Z,21.30
2018-12-27T16:39:40.785Z,21.00
2018-12-27T16:42:09.688Z,19.10
2018-12-27T16:44:38.090Z,21.30
2018-12-27T16:47:06.596Z,22.17
2018-12-27T16:49:35.093Z,23.10
2018-12-27T16:52:03.713Z,22.43
2018-12-27T16:54:32.185Z,21.87
2018-12-27T16:57:00.596Z,21.10
2018-12-27T16:59:28.997Z,22.43
2018-12-27T17:01:57.706Z,24.83
2018-12-27T17:04:26.355Z,23.10
2018-12-27T17:06:54.758Z,25.43
2018-12-27T17:09:23.184Z,23.83
2018-12-27T17:11:51.602Z,22.97
2018-12-27T17:14:20.346Z,24.20
2018-12-27T17:16:49.072Z,26.03
2018-12-27T17:19:17.712Z,24.37
2018-12-27T17:21:46.186Z,28.47
2018-12-27T17:24:14.870Z,25.60
2018-12-27T17:26:43.273Z,25.07
2018-12-27T17:29:11.919Z,25.53
2018-12-27T17:31:40.842Z,24.97
2018-12-27T17:34:09.235Z,25.43
2018-12-27T17:36:37.865Z,22.03
2018-12-27T17:39:07.122Z,24.30
2018-12-27T17:41:35.528Z,28.07
2018-12-27T17:44:04.185Z,26.17
2018-12-27T17:46:32.637Z,26.70
2018-12-27T17:49:01.024Z,25.77
2018-12-27T17:51:29.664Z,25.10
2018-12-27T17:53:58.241Z,25.57
2018-12-27T17:56:26.644Z,29.93
2018-12-27T17:58:55.049Z,27.93
2018-12-27T18:01:23.715Z,27.57
2018-12-27T18:03:52.363Z,27.97
2018-12-27T18:06:21.617Z,28.90
2018-12-27T18:08:50.036Z,25.73
2018-12-27T18:11:18.429Z,29.60
2018-12-27T18:13:46.845Z,27.20
2018-12-27T18:16:15.535Z,29.27
2018-12-27T18:18:43.937Z,25.50
2018-12-27T18:21:12.554Z,27.80
2018-12-27T18:23:41.002Z,32.90
2018-12-27T18:26:09.628Z,29.47
2018-12-27T18:28:38.283Z,31.97
2018-12-27T18:31:07.820Z,26.03
2018-12-27T18:33:36.496Z,29.50
2018-12-27T18:36:05.156Z,35.10
2018-12-27T18:38:33.578Z,34.20
2018-12-27T18:41:02.225Z,30.73
2018-12-27T18:43:30.619Z,30.53
2018-12-27T18:45:59.332Z,33.03
2018-12-27T18:48:27.732Z,31.60
2018-12-27T18:50:56.214Z,28.57
2018-12-27T18:53:24.679Z,28.07
2018-12-27T18:55:57.673Z,27.43
2018-12-27T18:58:26.070Z,25.70
2018-12-27T19:00:54.820Z,30.37
2018-12-27T19:03:23.221Z,26.33
2018-12-27T19:05:51.617Z,30.67
2018-12-27T19:08:20.082Z,29.70
2018-12-27T19:11:08.080Z,29.20
2018-12-27T19:13:36.787Z,30.60
2018-12-27T19:16:05.228Z,26.90
2018-12-27T19:18:33.688Z,28.07
2018-12-27T19:21:03.228Z,28.87
2018-12-27T19:23:31.681Z,26.57
2018-12-27T19:26:00.349Z,28.00
2018-12-27T19:28:29.037Z,27.90
2018-12-27T19:30:57.679Z,27.30
2018-12-27T19:33:26.064Z,27.20
2018-12-27T19:35:54.699Z,26.40
2018-12-27T19:38:23.348Z,25.70
2018-12-27T19:40:52.014Z,25.20
2018-12-27T19:43:20.453Z,28.70
2018-12-27T19:45:49.110Z,29.43
2018-12-27T19:48:17.777Z,26.70
2018-12-27T19:50:46.485Z,28.40
2018-12-27T19:53:15.144Z,27.97
2018-12-27T19:55:43.549Z,28.20
2018-12-27T19:58:12.268Z,30.00
2018-12-27T20:00:40.678Z,28.37
2018-12-27T20:03:09.065Z,32.47
2018-12-27T20:05:37.573Z,27.33
2018-12-27T20:08:06.172Z,27.70
2018-12-27T20:10:34.817Z,25.23
2018-12-27T20:13:03.390Z,30.17
2018-12-27T20:15:31.952Z,31.60
2018-12-27T20:18:00.433Z,29.57
2018-12-27T20:20:28.879Z,30.00
2018-12-27T20:22:57.526Z,27.43
2018-12-27T20:25:26.191Z,28.90
2018-12-27T20:27:54.618Z,25.80
2018-12-27T20:30:23.016Z,28.50
2018-12-27T20:32:51.662Z,26.10
2018-12-27T20:35:20.094Z,26.43
2018-12-27T20:37:48.521Z,27.33
2018-12-27T20:40:17.045Z,29.13
2018-12-27T20:42:45.504Z,28.07
2018-12-27T20:45:14.146Z,26.97
2018-12-27T20:47:42.558Z,24.93
2018-12-27T20:50:11.050Z,32.80
2018-12-27T20:52:39.695Z,31.53
2018-12-27T20:55:08.349Z,26.73
2018-12-27T20:57:37.026Z,32.60
2018-12-27T21:00:05.702Z,30.37
2018-12-27T21:02:34.330Z,29.60
2018-12-27T21:05:03.092Z,31.70
2018-12-27T21:07:31.729Z,29.33
2018-12-27T21:10:00.254Z,30.07
2018-12-27T21:12:28.938Z,31.00
2018-12-27T21:14:57.431Z,29.60
2018-12-27T21:17:25.834Z,30.57
2018-12-27T21:19:54.502Z,30.27
2018-12-27T21:22:23.172Z,31.37
2018-12-27T21:24:51.811Z,28.37
2018-12-27T21:27:20.337Z,29.80
2018-12-27T21:29:48.792Z,27.83
2018-12-27T21:32:17.432Z,31.30
2018-12-27T21:34:46.100Z,29.40
2018-12-27T21:37:14.497Z,27.17
2018-12-27T21:39:42.906Z,26.30
2018-12-27T21:42:11.593Z,28.07
2018-12-27T21:44:40.018Z,28.30
2018-12-27T21:47:08.435Z,31.47
2018-12-27T21:49:37.117Z,30.40
2018-12-27T21:52:05.519Z,30.40
2018-12-27T21:54:34.030Z,28.30
2018-12-27T21:57:02.430Z,29.20
2018-12-27T21:59:30.839Z,26.20
2018-12-27T22:01:59.486Z,29.90
2018-12-27T22:04:27.946Z,27.90
2018-12-27T22:06:56.350Z,27.53
2018-12-27T22:09:24.751Z,27.40
2018-12-27T22:11:53.214Z,26.97
2018-12-27T22:14:21.624Z,29.90
2018-12-27T22:16:50.028Z,27.60
2018-12-27T22:19:18.720Z,25.00
2018-12-27T22:21:47.377Z,26.57
2018-12-27T22:24:16.020Z,26.83
2018-12-27T22:26:44.474Z,27.30
2018-12-27T22:29:13.123Z,28.90
2018-12-27T22:31:41.541Z,27.40
2018-12-27T22:34:09.995Z,28.77
2018-12-27T22:36:38.648Z,27.63
2018-12-27T22:39:08.291Z,28.97
2018-12-27T22:41:36.734Z,27.77
2018-12-27T22:44:05.371Z,29.93
2018-12-27T22:46:33.775Z,29.47
2018-12-27T22:49:02.465Z,29.70
2018-12-27T22:51:30.889Z,30.03
2018-12-27T22:53:59.298Z,29.13
2018-12-27T22:56:28.040Z,32.07
2018-12-27T22:58:56.676Z,33.33
2018-12-27T23:01:25.157Z,30.90
2018-12-27T23:03:53.577Z,30.80
2018-12-27T23:06:21.991Z,31.17
2018-12-27T23:08:50.398Z,30.90
2018-12-27T23:11:18.910Z,30.37
2018-12-27T23:13:47.313Z,29.53
2018-12-27T23:16:16.298Z,28.37
2018-12-27T23:18:44.949Z,29.87
2018-12-27T23:21:13.830Z,31.87
2018-12-27T23:23:42.333Z,29.70
2018-12-27T23:26:10.780Z,31.33
2018-12-27T23:28:39.186Z,30.80
2018-12-27T23:31:07.841Z,30.40
2018-12-27T23:33:36.292Z,30.03
2018-12-27T23:36:04.755Z,27.83
2018-12-27T23:38:33.159Z,32.10
2018-12-27T23:41:01.630Z,30.90
2018-12-27T23:43:30.246Z,27.80
2018-12-27T23:45:59.834Z,26.37
2018-12-27T23:48:28.281Z,25.77
2018-12-27T23:50:56.754Z,29.67
2018-12-27T23:53:25.186Z,28.40
2018-12-27T23:55:53.602Z,23.60
2018-12-27T23:58:22.099Z,29.20
